createdAt,value
2023-05-14T00:03:24.300Z,0
2023-05-14T00:08:26.389Z,0
2023-05-14T00:13:28.397Z,0
2023-05-14T00:18:30.013Z,0
2023-05-14T00:23:31.614Z,0
2023-05-14T00:28:33.195Z,0
2023-05-14T00:33:34.872Z,0
2023-05-14T00:38:36.478Z,0
2023-05-14T00:43:37.873Z,0
2023-05-14T00:48:39.458Z,0
2023-05-14T00:53:41.230Z,0
2023-05-14T00:58:42.882Z,0
2023-05-14T01:03:44.285Z,0
2023-05-14T01:08:45.982Z,0
2023-05-14T01:13:47.570Z,0
2023-05-14T01:18:49.374Z,0
2023-05-14T01:23:51.019Z,0.88715
2023-05-14T01:28:52.694Z,0
2023-05-14T01:33:54.266Z,0
2023-05-14T01:38:55.851Z,0
2023-05-14T01:43:57.342Z,0
2023-05-14T01:48:58.671Z,0
2023-05-14T01:53:59.997Z,0.88715
2023-05-14T01:59:01.681Z,0
2023-05-14T02:04:03.209Z,0
2023-05-14T02:09:05.034Z,0
2023-05-14T02:14:06.329Z,0
2023-05-14T02:19:07.706Z,0
2023-05-14T02:24:09.090Z,0
2023-05-14T02:29:10.823Z,0
2023-05-14T02:34:12.414Z,0
2023-05-14T02:39:14.075Z,0.88715
2023-05-14T02:44:15.797Z,0
2023-05-14T02:49:17.640Z,0
2023-05-14T02:54:19.245Z,0.88715
2023-05-14T02:59:21.017Z,0
2023-05-14T03:04:23.173Z,0.88715
2023-05-14T03:09:25.334Z,0.88715
2023-05-14T03:14:27.092Z,0
2023-05-14T03:19:28.549Z,0
2023-05-14T03:24:30.207Z,0.88715
2023-05-14T03:29:31.882Z,0.88715
2023-05-14T03:34:33.654Z,0
2023-05-14T03:39:35.334Z,0
2023-05-14T03:44:37.093Z,0
2023-05-14T03:49:38.649Z,0
2023-05-14T03:54:40.214Z,0.88715
2023-05-14T03:59:41.933Z,0
2023-05-14T04:04:43.670Z,0
2023-05-14T04:09:45.997Z,0.88715
2023-05-14T04:14:47.752Z,0.88715
2023-05-14T04:19:49.294Z,1.16185
2023-05-14T04:24:50.884Z,1.3463
2023-05-14T04:29:52.556Z,2.6926
2023-05-14T04:34:54.172Z,2.42955
2023-05-14T04:39:55.905Z,12.17185
2023-05-14T04:44:57.233Z,16.57965
2023-05-14T04:49:58.513Z,25.3401
2023-05-14T04:54:59.767Z,31.05085
2023-05-14T05:00:01.347Z,49.8946
2023-05-14T05:05:02.588Z,61.15355
2023-05-14T05:10:03.938Z,80.28165
2023-05-14T05:15:05.317Z,92.9137
2023-05-14T05:20:06.599Z,115.31975
2023-05-14T05:25:08.052Z,131.58565
2023-05-14T05:30:09.375Z,142.46635
2023-05-14T05:35:10.773Z,148.44105
2023-05-14T05:40:12.420Z,152.3145
2023-05-14T05:45:14.137Z,177.0081
2023-05-14T05:50:15.529Z,212.30665
2023-05-14T05:55:16.957Z,261.2165
2023-05-14T06:00:18.376Z,289.12175
2023-05-14T06:05:19.809Z,307.9338
2023-05-14T06:10:21.621Z,287.629
2023-05-14T06:15:23.481Z,261.0719
2023-05-14T06:20:25.300Z,293.54855
2023-05-14T06:25:27.126Z,268.2256
2023-05-14T06:30:28.737Z,312.1743
2023-05-14T06:35:30.357Z,425.5981
2023-05-14T06:40:31.993Z,378.07255
2023-05-14T06:45:33.627Z,378.58975
2023-05-14T06:50:35.451Z,457.17335
2023-05-14T06:55:37.195Z,438.07025
2023-05-14T07:00:38.489Z,370.44335
2023-05-14T07:05:40.051Z,371.9741
2023-05-14T07:10:41.456Z,342.13305
2023-05-14T07:15:42.771Z,363.0292
2023-05-14T07:20:44.103Z,383.77705
2023-05-14T07:25:45.747Z,502.9378
2023-05-14T07:30:47.327Z,447.25845
2023-05-14T07:35:48.897Z,361.92435
2023-05-14T07:40:50.575Z,354.5482
2023-05-14T07:45:52.287Z,347.0599
2023-05-14T07:50:53.944Z,330.36995
2023-05-14T07:55:55.513Z,342.24705
2023-05-14T08:00:57.146Z,373.36025
2023-05-14T08:05:58.389Z,397.5575
2023-05-14T08:10:59.920Z,396.11805
2023-05-14T08:16:01.368Z,415.36945
2023-05-14T08:21:03.737Z,502.5615
2023-05-14T08:26:05.399Z,826.3353
2023-05-14T08:31:07.011Z,994.33175
2023-05-14T08:36:08.302Z,748.65495
2023-05-14T08:41:09.584Z,707.264
2023-05-14T08:46:11.234Z,979.2773
2023-05-14T08:51:12.662Z,1021.29575
2023-05-14T08:56:14.011Z,1015.6881
2023-05-14T09:01:15.451Z,1048.71995
2023-05-14T09:06:16.819Z,1075.9977
2023-05-14T09:11:18.510Z,1074.48595
2023-05-14T09:16:19.965Z,1116.31255
2023-05-14T09:21:21.260Z,1061.11055
2023-05-14T09:26:22.571Z,1180.4196
2023-05-14T09:31:23.831Z,831.9221
2023-05-14T09:36:25.128Z,1183.2985
2023-05-14T09:41:26.385Z,1227.5095
2023-05-14T09:46:27.719Z,1315.48475
2023-05-14T09:51:29.198Z,1221.3559
2023-05-14T09:56:30.877Z,1341.93155
2023-05-14T10:01:32.625Z,1407.0123
2023-05-14T10:06:34.228Z,1376.4163
2023-05-14T10:11:36.285Z,1361.0898
2023-05-14T10:16:38.136Z,1355.48215
2023-05-14T10:21:39.506Z,1422.6127
2023-05-14T10:26:41.112Z,1496.30745
2023-05-14T10:31:42.957Z,1440.39035
2023-05-14T10:36:44.303Z,1516.24335
2023-05-14T10:41:45.606Z,1552.5726
2023-05-14T10:46:47.321Z,1693.84835
2023-05-14T10:51:49.021Z,1449.8089
2023-05-14T10:56:50.618Z,1702.1449
2023-05-14T11:01:52.432Z,1506.55695
2023-05-14T11:06:53.803Z,1728.0935
2023-05-14T11:11:55.964Z,1408.30765
2023-05-14T11:16:57.757Z,1698.91425
2023-05-14T11:21:59.093Z,1727.73805
2023-05-14T11:27:00.470Z,1001.12075
2023-05-14T11:32:01.899Z,1724.47495
2023-05-14T11:37:03.344Z,1545.09775
2023-05-14T11:42:04.777Z,1563.6359
2023-05-14T11:47:06.153Z,1476.9935
2023-05-14T11:52:07.749Z,1496.161
2023-05-14T11:57:09.055Z,710.88625
2023-05-14T12:02:10.542Z,1395.06105
2023-05-14T12:07:11.848Z,937.87845
2023-05-14T12:12:13.427Z,802.8777
2023-05-14T12:17:14.944Z,1228.9777
2023-05-14T12:22:16.240Z,1487.13825
2023-05-14T12:27:17.624Z,947.68675
2023-05-14T12:32:19.067Z,1320.8037
2023-05-14T12:37:20.349Z,1679.38525
2023-05-14T12:42:21.904Z,1616.97255
2023-05-14T12:47:23.535Z,1007.7132
2023-05-14T12:52:36.780Z,1426.56635
2023-05-14T12:57:40.854Z,1610.2392
2023-05-14T13:02:43.891Z,1412.56715
2023-05-14T13:07:45.838Z,1637.846
2023-05-14T13:12:47.588Z,627.86845
2023-05-14T13:17:49.352Z,1482.28185
2023-05-14T13:22:50.955Z,583.3321
2023-05-14T13:27:52.444Z,1394.4206
2023-05-14T13:32:54.708Z,1346.7296
2023-05-14T13:37:56.762Z,757.11325
2023-05-14T13:42:59.003Z,768.77345
2023-05-14T13:48:01.065Z,914.0654
2023-05-14T13:53:02.614Z,754.53465
2023-05-14T13:58:04.316Z,416.3186
2023-05-14T14:03:05.663Z,980.3534
2023-05-14T14:08:21.973Z,991.584
2023-05-14T14:13:25.193Z,863.37175
2023-05-14T14:18:27.080Z,750.63245
2023-05-14T14:23:28.788Z,646.414
2023-05-14T14:28:30.685Z,522.4631
2023-05-14T14:33:32.334Z,352.36725
2023-05-14T14:38:33.950Z,269.0621
2023-05-14T14:43:35.679Z,234.05275
2023-05-14T14:48:37.505Z,182.82475
2023-05-14T14:53:39.441Z,148.86695
2023-05-14T14:58:41.079Z,112.2221
2023-05-14T15:03:42.803Z,86.69755
2023-05-14T15:08:44.439Z,67.73905
2023-05-14T15:13:45.835Z,42.28865
2023-05-14T15:18:47.597Z,36.3311
2023-05-14T15:23:49.226Z,23.9748
2023-05-14T15:28:50.893Z,13.3337
2023-05-14T15:33:52.809Z,4.22335
2023-05-14T15:38:54.574Z,6.9711
2023-05-14T15:43:56.161Z,1.3463
2023-05-14T15:48:57.948Z,0
2023-05-14T15:53:59.501Z,0.88715
2023-05-14T15:59:00.763Z,0.88715
2023-05-14T16:04:02.261Z,0.88715
2023-05-14T16:09:03.628Z,0
2023-05-14T16:14:04.985Z,0
2023-05-14T16:19:06.497Z,0.88715
2023-05-14T16:24:07.913Z,0
2023-05-14T16:29:09.413Z,0
2023-05-14T16:34:11.018Z,0.88715
2023-05-14T16:39:12.428Z,0
2023-05-14T16:44:14.014Z,0
2023-05-14T16:49:15.482Z,0
2023-05-14T16:54:16.984Z,0.88715
2023-05-14T16:59:18.734Z,0
2023-05-14T17:04:20.269Z,0
2023-05-14T17:09:21.832Z,0
2023-05-14T17:14:23.589Z,0
2023-05-14T17:19:25.164Z,0.88715
2023-05-14T17:24:26.794Z,0.88715
2023-05-14T17:29:28.344Z,0
2023-05-14T17:34:30.031Z,0.88715
2023-05-14T17:39:31.540Z,0
2023-05-14T17:44:33.081Z,0.88715
2023-05-14T17:49:34.664Z,0
2023-05-14T17:54:36.392Z,0.88715
2023-05-14T17:59:38.275Z,0
2023-05-14T18:04:40.426Z,0
2023-05-14T18:09:42.544Z,0
2023-05-14T18:14:45.749Z,0.88715
2023-05-14T18:19:47.765Z,0
2023-05-14T18:24:49.537Z,0
2023-05-14T18:29:51.273Z,0
2023-05-14T18:34:52.942Z,0
2023-05-14T18:39:54.830Z,0
2023-05-14T18:44:56.576Z,0
2023-05-14T18:49:58.624Z,0
2023-05-14T18:55:00.388Z,0
2023-05-14T19:00:01.744Z,0
2023-05-14T19:05:03.390Z,0
2023-05-14T19:10:05.534Z,0
2023-05-14T19:15:07.428Z,0
2023-05-14T19:20:09.282Z,0
2023-05-14T19:25:10.869Z,0
2023-05-14T19:30:12.433Z,0.88715
2023-05-14T19:35:13.872Z,0
2023-05-14T19:40:15.504Z,0.88715
2023-05-14T19:45:17.358Z,0
2023-05-14T19:50:19.186Z,0
2023-05-14T19:55:20.525Z,0.88715
2023-05-14T20:00:21.866Z,0
2023-05-14T20:05:23.746Z,0
2023-05-14T20:10:26.025Z,0.88715
2023-05-14T20:15:27.920Z,0
2023-05-14T20:20:31.955Z,0
2023-05-14T20:25:34.797Z,0
2023-05-14T20:30:36.134Z,0.88715
2023-05-14T20:35:37.834Z,0
2023-05-14T20:40:39.185Z,0
2023-05-14T20:45:40.562Z,0
2023-05-14T20:50:41.855Z,0
2023-05-14T20:55:44.744Z,0
2023-05-14T21:00:46.053Z,0
2023-05-14T21:05:47.547Z,0
2023-05-14T21:10:49.244Z,0
2023-05-14T21:15:50.646Z,0
2023-05-14T21:20:52.015Z,0
2023-05-14T21:25:53.434Z,0
2023-05-14T21:30:54.758Z,0.88715
2023-05-14T21:35:56.350Z,0
2023-05-14T21:40:57.790Z,0.88715
2023-05-14T21:45:59.045Z,0
2023-05-14T21:51:00.765Z,0
2023-05-14T21:56:02.009Z,0
2023-05-14T22:01:03.352Z,0
2023-05-14T22:06:04.636Z,0.88715
2023-05-14T22:11:05.901Z,0
2023-05-14T22:16:12.879Z,0
2023-05-14T22:21:15.727Z,0
2023-05-14T22:26:17.477Z,0
2023-05-14T22:31:19.065Z,0
2023-05-14T22:36:20.977Z,0
2023-05-14T22:41:22.625Z,0
2023-05-14T22:46:24.552Z,0.88715
2023-05-14T22:51:26.526Z,0
2023-05-14T22:56:28.114Z,0
2023-05-14T23:01:29.718Z,0
2023-05-14T23:06:31.357Z,0
2023-05-14T23:11:33.001Z,0
2023-05-14T23:16:35.089Z,0
2023-05-14T23:21:36.706Z,0
2023-05-14T23:26:38.505Z,0.88715
2023-05-14T23:31:40.210Z,0
2023-05-14T23:36:41.937Z,0.88715
2023-05-14T23:41:43.568Z,0.88715
2023-05-14T23:46:45.158Z,0
2023-05-14T23:51:46.980Z,0
2023-05-14T23:56:48.476Z,0
